Terminal Aerodrome Forecast
Issued by NWS

Home | Current Version | Previous Version | Text Only | Print | Product List | Glossary Off
Versions: 1 2 3 4 5 6 7 8 9 10 11 12 13 14 15 16

000
FTUS43 KICT 241720
TAFHUT
TAF
KHUT 241720Z 2418/2518 18030G38KT P6SM BKN250
     FM242200 18023KT P6SM SCT250
     FM250200 15013KT P6SM BKN200
     FM250500 15011KT P6SM BKN250 WS020/17040KT
     FM250600 15012KT P6SM BKN200
     FM251700 25010KT P6SM BKN140=

USA.gov is the U.S. government's official web portal to all federal, state and local government web resources and services.